createdAt,value
2023-05-07T00:05:10.531Z,100411
2023-05-07T00:11:03.987Z,100414
2023-05-07T00:16:56.365Z,100422
2023-05-07T00:22:48.840Z,100427
2023-05-07T00:28:40.005Z,100420
2023-05-07T00:34:31.568Z,100419
2023-05-07T00:40:23.756Z,100415
2023-05-07T00:46:15.575Z,100413
2023-05-07T00:52:08.183Z,100412
2023-05-07T00:58:00.428Z,100411
2023-05-07T01:03:53.682Z,100403
2023-05-07T01:09:46.861Z,100397
2023-05-07T01:15:38.570Z,100403
2023-05-07T01:21:31.757Z,100394
2023-05-07T01:27:23.943Z,100381
2023-05-07T01:33:15.456Z,100379
2023-05-07T01:39:08.318Z,100385
2023-05-07T01:45:00.009Z,100389
2023-05-07T01:50:52.476Z,100382
2023-05-07T01:56:44.018Z,100391
2023-05-07T02:02:36.630Z,100392
2023-05-07T02:08:28.740Z,100383
2023-05-07T02:14:20.498Z,100386
2023-05-07T02:20:13.703Z,100388
2023-05-07T02:26:04.195Z,100383
2023-05-07T02:31:53.186Z,100377
2023-05-07T02:37:46.066Z,100377
2023-05-07T02:43:38.002Z,100385
2023-05-07T02:49:30.166Z,100382
2023-05-07T02:55:22.083Z,100380
2023-05-07T03:01:14.467Z,100371
2023-05-07T03:07:06.034Z,100370
2023-05-07T03:12:59.219Z,100371
2023-05-07T03:18:51.559Z,100370
2023-05-07T03:24:43.014Z,100372
2023-05-07T03:30:34.530Z,100366
2023-05-07T03:36:28.070Z,100368
2023-05-07T03:42:21.244Z,100370
2023-05-07T03:48:14.262Z,100370
2023-05-07T03:54:05.594Z,100379
2023-05-07T03:59:58.245Z,100382
2023-05-07T04:05:49.838Z,100375
2023-05-07T04:11:42.075Z,100390
2023-05-07T04:17:34.754Z,100397
2023-05-07T04:23:26.701Z,100402
2023-05-07T04:29:18.838Z,100401
2023-05-07T04:35:10.852Z,100394
2023-05-07T04:41:02.635Z,100395
2023-05-07T04:46:55.040Z,100389
2023-05-07T04:52:47.411Z,100381
2023-05-07T04:58:40.787Z,100393
2023-05-07T05:04:32.602Z,100391
2023-05-07T05:10:27.349Z,100387
2023-05-07T05:16:18.844Z,100389
2023-05-07T05:22:10.957Z,100403
2023-05-07T05:28:02.723Z,100397
2023-05-07T05:33:54.761Z,100402
2023-05-07T05:39:46.765Z,100405
2023-05-07T05:45:38.431Z,100403
2023-05-07T05:51:31.786Z,100398
2023-05-07T05:57:25.602Z,100396
2023-05-07T06:03:19.675Z,100395
2023-05-07T06:09:14.135Z,100392
2023-05-07T06:15:05.326Z,100394
2023-05-07T06:20:57.371Z,100392
2023-05-07T06:26:49.664Z,100401
2023-05-07T06:32:42.866Z,100411
2023-05-07T06:38:35.093Z,100422
2023-05-07T06:45:33.183Z,100430
2023-05-07T06:51:23.672Z,100429
2023-05-07T06:57:15.942Z,100436
2023-05-07T07:03:07.476Z,100444
2023-05-07T07:08:57.799Z,100435
2023-05-07T07:14:47.396Z,100439
2023-05-07T07:20:37.491Z,100442
2023-05-07T07:26:27.148Z,100440
2023-05-07T07:32:18.280Z,100446
2023-05-07T07:38:11.135Z,100447
2023-05-07T07:44:05.067Z,100452
2023-05-07T07:49:59.374Z,100443
2023-05-07T07:55:51.179Z,100454
2023-05-07T08:01:47.809Z,100458
2023-05-07T08:07:42.338Z,100462
2023-05-07T08:13:35.023Z,100459
2023-05-07T08:19:29.671Z,100463
2023-05-07T08:25:21.043Z,100465
2023-05-07T08:31:14.421Z,100465
2023-05-07T08:37:08.461Z,100460
2023-05-07T08:43:01.665Z,100467
2023-05-07T08:48:56.007Z,100462
2023-05-07T08:54:48.904Z,100464
2023-05-07T09:00:40.767Z,100460
2023-05-07T09:06:33.192Z,100457
2023-05-07T09:12:25.444Z,100454
2023-05-07T09:18:20.651Z,100455
2023-05-07T09:24:11.844Z,100452
2023-05-07T09:30:01.517Z,100448
2023-05-07T09:35:52.984Z,100450
2023-05-07T09:41:46.527Z,100456
2023-05-07T09:47:40.599Z,100449
2023-05-07T09:53:32.208Z,100448
2023-05-07T09:59:29.830Z,100440
2023-05-07T10:05:28.563Z,100431
2023-05-07T10:11:21.548Z,100433
2023-05-07T10:17:13.308Z,100431
2023-05-07T10:23:07.958Z,100422
2023-05-07T10:28:58.395Z,100423
2023-05-07T10:34:50.170Z,100413
2023-05-07T10:40:43.248Z,100413
2023-05-07T10:46:39.626Z,100420
2023-05-07T10:52:32.030Z,100422
2023-05-07T10:58:34.966Z,100423
2023-05-07T11:04:25.732Z,100401
2023-05-07T11:10:18.086Z,100405
2023-05-07T11:16:10.621Z,100402
2023-05-07T11:22:02.859Z,100393
2023-05-07T11:27:57.469Z,100396
2023-05-07T11:33:49.726Z,100392
2023-05-07T11:39:43.063Z,100389
2023-05-07T11:45:35.128Z,100381
2023-05-07T11:51:26.395Z,100387
2023-05-07T11:57:19.080Z,100383
2023-05-07T12:03:11.158Z,100376
2023-05-07T12:09:02.557Z,100380
2023-05-07T12:14:53.793Z,100384
2023-05-07T12:20:45.678Z,100383
2023-05-07T12:26:39.494Z,100389
2023-05-07T12:32:31.522Z,100385
2023-05-07T12:38:23.722Z,100385
2023-05-07T12:44:15.146Z,100387
2023-05-07T12:50:07.079Z,100390
2023-05-07T12:55:59.155Z,100383
2023-05-07T13:01:51.294Z,100377
2023-05-07T13:07:43.650Z,100392
2023-05-07T13:13:36.477Z,100391
2023-05-07T13:19:31.484Z,100390
2023-05-07T13:25:21.016Z,100388
2023-05-07T13:31:13.126Z,100381
2023-05-07T13:37:04.742Z,100383
2023-05-07T13:42:59.813Z,100377
2023-05-07T13:48:51.402Z,100377
2023-05-07T13:54:43.410Z,100383
2023-05-07T14:00:34.938Z,100385
2023-05-07T14:06:26.998Z,100386
2023-05-07T14:12:17.982Z,100397
2023-05-07T14:18:12.183Z,100391
2023-05-07T14:24:03.645Z,100412
2023-05-07T14:29:55.273Z,100414
2023-05-07T14:35:46.699Z,100430
2023-05-07T14:41:38.422Z,100452
2023-05-07T14:47:30.393Z,100465
2023-05-07T14:53:21.246Z,100463
2023-05-07T14:59:12.593Z,100470
2023-05-07T15:05:02.809Z,100472
2023-05-07T15:10:54.630Z,100482
2023-05-07T15:16:46.507Z,100506
2023-05-07T15:22:40.318Z,100537
2023-05-07T15:28:32.329Z,100549
2023-05-07T15:34:23.348Z,100542
2023-05-07T15:40:14.445Z,100547
2023-05-07T15:46:09.646Z,100556
2023-05-07T15:51:59.898Z,100536
2023-05-07T15:57:51.515Z,100555
2023-05-07T16:03:44.368Z,100567
2023-05-07T16:09:36.526Z,100568
2023-05-07T16:15:29.016Z,100574
2023-05-07T16:21:20.754Z,100561
2023-05-07T16:27:12.402Z,100551
2023-05-07T16:33:06.357Z,100554
2023-05-07T16:38:58.759Z,100569
2023-05-07T16:44:50.530Z,100576
2023-05-07T16:50:43.904Z,100583
2023-05-07T16:56:36.139Z,100581
2023-05-07T17:02:32.031Z,100574
2023-05-07T17:08:28.167Z,100595
2023-05-07T17:14:22.009Z,100595
2023-05-07T17:20:14.278Z,100598
2023-05-07T17:26:06.194Z,100603
2023-05-07T17:31:57.586Z,100599
2023-05-07T17:37:50.759Z,100609
2023-05-07T17:43:42.585Z,100613
2023-05-07T17:49:34.886Z,100633
2023-05-07T17:55:31.351Z,100641
2023-05-07T18:01:23.109Z,100649
2023-05-07T18:07:16.989Z,100664
2023-05-07T18:13:08.524Z,100658
2023-05-07T18:19:00.654Z,100665
2023-05-07T18:24:53.797Z,100669
2023-05-07T18:30:45.015Z,100676
2023-05-07T18:36:37.883Z,100675
2023-05-07T18:42:34.650Z,100678
2023-05-07T18:48:31.461Z,100685
2023-05-07T18:54:22.919Z,100695
2023-05-07T19:00:15.838Z,100703
2023-05-07T19:06:09.886Z,100702
2023-05-07T19:12:03.976Z,100715
2023-05-07T19:17:55.254Z,100727
2023-05-07T19:23:47.575Z,100744
2023-05-07T19:29:39.428Z,100736
2023-05-07T19:35:31.874Z,100735
2023-05-07T19:41:23.829Z,100732
2023-05-07T19:47:16.596Z,100735
2023-05-07T19:53:09.563Z,100736
2023-05-07T19:59:02.275Z,100744
2023-05-07T20:04:53.833Z,100746
2023-05-07T20:10:46.379Z,100752
2023-05-07T20:16:38.140Z,100753
2023-05-07T20:22:29.720Z,100757
2023-05-07T20:28:21.318Z,100759
2023-05-07T20:34:12.764Z,100765
2023-05-07T20:40:05.675Z,100769
2023-05-07T20:45:56.457Z,100773
2023-05-07T20:51:49.763Z,100781
2023-05-07T20:57:42.464Z,100790
2023-05-07T21:03:32.295Z,100786
2023-05-07T21:09:23.735Z,100791
2023-05-07T21:15:15.861Z,100782
2023-05-07T21:21:05.693Z,100790
2023-05-07T21:27:00.132Z,100789
2023-05-07T21:32:52.265Z,100785
2023-05-07T21:38:44.560Z,100779
2023-05-07T21:44:35.698Z,100775
2023-05-07T21:50:28.261Z,100778
2023-05-07T21:56:19.638Z,100773
2023-05-07T22:02:11.633Z,100773
2023-05-07T22:08:03.452Z,100777
2023-05-07T22:13:54.857Z,100775
2023-05-07T22:19:45.974Z,100775
2023-05-07T22:25:37.992Z,100781
2023-05-07T22:31:30.227Z,100786
2023-05-07T22:37:26.696Z,100783
2023-05-07T22:43:18.942Z,100790
2023-05-07T22:49:10.224Z,100792
2023-05-07T22:55:02.376Z,100788
2023-05-07T23:00:52.303Z,100780
2023-05-07T23:06:44.322Z,100778
2023-05-07T23:12:36.811Z,100776
2023-05-07T23:18:28.194Z,100780
2023-05-07T23:24:21.890Z,100782
2023-05-07T23:30:14.133Z,100789
2023-05-07T23:36:07.288Z,100787
2023-05-07T23:41:58.075Z,100793
2023-05-07T23:47:50.468Z,100796
2023-05-07T23:53:41.322Z,100801
2023-05-07T23:59:33.965Z,100787
